createdAt,value
2017-05-19T00:02:06.981Z,3.38
2017-05-19T00:04:32.846Z,3.10
2017-05-19T00:06:58.690Z,3.56
2017-05-19T00:09:24.653Z,3.12
2017-05-19T00:11:56.314Z,3.14
2017-05-19T00:14:22.171Z,3.10
2017-05-19T00:16:48.007Z,2.72
2017-05-19T00:19:13.855Z,3.00
2017-05-19T00:21:39.757Z,3.14
2017-05-19T00:24:05.596Z,3.42
2017-05-19T00:35:47.601Z,2.92
2017-05-19T00:38:13.570Z,2.90
2017-05-19T00:40:39.433Z,3.36
2017-05-19T00:54:51.370Z,2.86
2017-05-19T01:14:56.653Z,3.30
2017-05-19T01:17:22.511Z,2.80
2017-05-19T01:19:48.368Z,3.26
2017-05-19T01:22:14.211Z,2.72
2017-05-19T01:24:40.042Z,3.38
2017-05-19T01:35:55.477Z,3.16
2017-05-19T01:38:21.331Z,2.90
2017-05-19T01:40:47.178Z,2.80
2017-05-19T01:54:58.885Z,3.04
2017-05-19T02:15:03.532Z,2.64
2017-05-19T02:17:29.414Z,2.98
2017-05-19T02:19:55.266Z,2.32
2017-05-19T02:22:21.102Z,2.92
2017-05-19T02:24:47.067Z,2.48
2017-05-19T02:36:02.359Z,2.52
2017-05-19T02:38:28.186Z,2.68
2017-05-19T02:40:54.038Z,2.80
2017-05-19T02:55:05.913Z,2.60
2017-05-19T03:15:10.488Z,2.74
2017-05-19T03:17:36.325Z,2.38
2017-05-19T03:20:02.182Z,2.20
2017-05-19T03:22:28.011Z,2.40
2017-05-19T03:24:53.959Z,2.08
2017-05-19T03:36:09.237Z,2.36
2017-05-19T03:38:35.086Z,2.16
2017-05-19T03:41:01.034Z,2.50
2017-05-19T03:55:13.764Z,2.62
2017-05-19T04:15:20.127Z,2.80
2017-05-19T04:17:45.997Z,2.10
2017-05-19T04:20:11.970Z,2.52
2017-05-19T04:22:37.912Z,2.70
2017-05-19T04:25:03.774Z,2.50
2017-05-19T04:36:19.301Z,2.20
2017-05-19T04:38:45.164Z,2.60
2017-05-19T04:41:11.027Z,2.20
2017-05-19T04:55:22.776Z,1.98
2017-05-19T05:15:27.598Z,2.24
2017-05-19T05:17:53.456Z,2.24
2017-05-19T05:20:19.318Z,2.00
2017-05-19T05:22:45.246Z,3.06
2017-05-19T05:25:11.118Z,3.14
2017-05-19T05:36:29.311Z,2.64
2017-05-19T05:38:55.998Z,3.22
2017-05-19T05:41:21.874Z,3.54
2017-05-19T05:55:34.401Z,5.02
2017-05-19T06:03:59.506Z,4.76
2017-05-19T06:06:25.425Z,4.30
2017-05-19T06:08:51.317Z,4.26
2017-05-19T06:11:17.221Z,6.18
2017-05-19T06:16:40.029Z,4.26
2017-05-19T06:19:06.370Z,4.58
2017-05-19T06:21:32.244Z,4.30
2017-05-19T06:23:58.108Z,3.62
2017-05-19T06:26:23.973Z,4.46
2017-05-19T06:28:55.830Z,4.00
2017-05-19T06:31:21.734Z,4.82
2017-05-19T06:33:47.613Z,4.22
2017-05-19T06:36:13.440Z,4.52
2017-05-19T06:38:39.366Z,3.82
2017-05-19T06:41:05.339Z,4.38
2017-05-19T06:55:18.646Z,3.20
2017-05-19T07:15:26.271Z,3.34
2017-05-19T07:17:52.126Z,3.38
2017-05-19T07:20:17.985Z,2.94
2017-05-19T07:22:44.586Z,3.10
2017-05-19T07:25:10.486Z,3.18
2017-05-19T07:27:36.331Z,3.98
2017-05-19T07:35:55.151Z,3.32
2017-05-19T07:38:21.155Z,3.42
2017-05-19T07:40:47.029Z,3.56
2017-05-19T07:54:58.764Z,3.04
2017-05-19T07:57:24.661Z,3.80
2017-05-19T08:14:32.855Z,3.50
2017-05-19T08:16:58.707Z,2.98
2017-05-19T08:19:24.599Z,3.14
2017-05-19T08:21:50.554Z,2.98
2017-05-19T08:24:16.426Z,3.16
2017-05-19T08:26:42.359Z,2.50
2017-05-19T08:35:01.397Z,3.64
2017-05-19T08:37:27.241Z,3.26
2017-05-19T08:39:53.637Z,3.40
2017-05-19T08:42:19.594Z,3.76
2017-05-19T08:53:59.710Z,3.36
2017-05-19T08:56:26.148Z,3.52
2017-05-19T08:58:58.031Z,3.72
2017-05-19T09:01:23.887Z,3.64
2017-05-19T09:03:49.769Z,4.08
2017-05-19T09:06:15.637Z,3.78
2017-05-19T09:08:41.642Z,3.80
2017-05-19T09:11:07.525Z,3.50
2017-05-19T09:13:33.369Z,3.94
2017-05-19T09:19:01.448Z,3.60
2017-05-19T09:21:27.374Z,3.70
2017-05-19T09:23:53.247Z,3.70
2017-05-19T09:26:19.834Z,3.70
2017-05-19T09:28:45.733Z,3.82
2017-05-19T09:34:08.357Z,3.60
2017-05-19T09:36:34.213Z,3.76
2017-05-19T09:39:00.102Z,4.10
2017-05-19T09:41:26.054Z,4.22
2017-05-19T09:43:52.088Z,3.56
2017-05-19T09:55:08.445Z,3.68
2017-05-19T09:57:34.280Z,4.08
2017-05-19T10:05:58.886Z,3.82
2017-05-19T10:08:24.770Z,3.80
2017-05-19T10:10:50.721Z,3.54
2017-05-19T10:13:16.576Z,3.70
2017-05-19T10:15:42.439Z,3.26
2017-05-19T10:18:08.290Z,3.78
2017-05-19T10:20:34.157Z,3.46
2017-05-19T10:22:59.991Z,3.24
2017-05-19T10:25:25.862Z,3.72
2017-05-19T10:27:51.773Z,3.36
2017-05-19T10:36:10.954Z,3.06
2017-05-19T10:38:36.838Z,3.60
2017-05-19T10:41:02.767Z,3.60
2017-05-19T10:43:28.592Z,2.98
2017-05-19T10:46:00.342Z,3.22
2017-05-19T10:48:26.345Z,3.08
2017-05-19T10:50:52.192Z,4.00
2017-05-19T10:53:18.118Z,4.48
2017-05-19T10:55:44.019Z,4.80
2017-05-19T10:58:09.852Z,4.72
2017-05-19T11:15:17.954Z,5.38
2017-05-19T11:17:43.895Z,4.94
2017-05-19T11:20:09.773Z,5.10
2017-05-19T11:22:35.625Z,4.20
2017-05-19T11:25:01.502Z,4.86
2017-05-19T11:27:27.351Z,4.62
2017-05-19T11:29:58.335Z,4.40
2017-05-19T11:32:24.192Z,4.78
2017-05-19T11:34:50.044Z,4.40
2017-05-19T11:37:15.949Z,4.64
2017-05-19T11:39:41.853Z,4.48
2017-05-19T11:42:07.826Z,3.74
2017-05-19T11:44:33.747Z,4.00
2017-05-19T11:50:01.950Z,4.40
2017-05-19T11:52:27.905Z,3.62
2017-05-19T11:54:53.760Z,4.02
2017-05-19T11:57:19.639Z,4.00
2017-05-19T12:14:29.666Z,2.88
2017-05-19T12:17:01.443Z,3.58
2017-05-19T12:19:28.074Z,2.90
2017-05-19T12:21:54.691Z,2.94
2017-05-19T12:24:20.601Z,2.84
2017-05-19T12:26:46.714Z,3.06
2017-05-19T12:29:12.605Z,3.08
2017-05-19T12:34:36.061Z,2.88
2017-05-19T12:37:02.726Z,3.18
2017-05-19T12:39:28.588Z,3.22
2017-05-19T12:41:54.435Z,2.90
2017-05-19T12:44:20.311Z,2.72
2017-05-19T12:55:35.655Z,3.78
2017-05-19T12:58:01.431Z,3.24
2017-05-19T13:15:11.850Z,3.02
2017-05-19T13:35:20.892Z,3.10
2017-05-19T13:37:46.774Z,2.90
2017-05-19T13:40:13.369Z,3.40
2017-05-19T13:42:39.347Z,3.20
2017-05-19T13:45:05.242Z,3.14
2017-05-19T13:56:20.719Z,3.28
2017-05-19T13:58:46.530Z,3.68
2017-05-19T14:13:04.447Z,3.60
2017-05-19T14:15:30.296Z,4.52
2017-05-19T14:18:01.953Z,4.28
2017-05-19T14:20:27.822Z,4.40
2017-05-19T14:22:53.659Z,4.28
2017-05-19T14:25:19.594Z,4.42
2017-05-19T14:27:45.510Z,4.20
2017-05-19T14:30:11.393Z,4.22
2017-05-19T14:35:34.094Z,4.12
2017-05-19T14:38:00.068Z,4.30
2017-05-19T14:40:25.955Z,4.28
2017-05-19T14:42:52.200Z,4.34
2017-05-19T14:45:18.021Z,3.94
2017-05-19T14:56:34.703Z,3.88
2017-05-19T14:59:00.564Z,3.68
2017-05-19T15:16:12.405Z,3.32
2017-05-19T15:18:38.338Z,3.22
2017-05-19T15:21:04.210Z,3.42
2017-05-19T15:23:30.279Z,3.50
2017-05-19T15:25:56.800Z,3.40
2017-05-19T15:28:23.211Z,3.88
2017-05-19T15:30:49.022Z,3.68
2017-05-19T15:36:11.649Z,3.20
2017-05-19T15:38:37.754Z,3.32
2017-05-19T15:41:03.610Z,3.48
2017-05-19T15:43:30.226Z,3.68
2017-05-19T15:48:27.311Z,2.98
2017-05-19T15:50:53.528Z,3.30
2017-05-19T15:53:20.150Z,3.42
2017-05-19T15:55:46.041Z,3.32
2017-05-19T15:58:14.330Z,3.22
2017-05-19T16:00:41.148Z,2.94
2017-05-19T16:03:07.010Z,3.30
2017-05-19T16:05:32.863Z,3.44
2017-05-19T16:07:59.457Z,3.20
2017-05-19T16:10:25.315Z,3.36
2017-05-19T16:12:51.902Z,3.44
2017-05-19T16:15:17.838Z,3.72
2017-05-19T16:17:44.317Z,3.70
2017-05-19T16:20:10.142Z,3.52
2017-05-19T16:22:36.723Z,3.36
2017-05-19T16:25:02.658Z,2.90
2017-05-19T16:27:28.839Z,2.94
2017-05-19T16:29:54.705Z,3.00
2017-05-19T16:32:20.559Z,2.74
2017-05-19T16:34:46.456Z,2.50
2017-05-19T16:37:12.339Z,2.18
2017-05-19T16:39:38.280Z,2.70
2017-05-19T16:44:37.026Z,2.50
2017-05-19T16:47:02.963Z,2.42
2017-05-19T16:49:28.892Z,1.72
2017-05-19T16:51:54.808Z,2.46
2017-05-19T16:54:23.573Z,2.04
2017-05-19T16:56:46.593Z,2.16
2017-05-19T16:59:12.899Z,2.52
2017-05-19T17:01:39.908Z,2.40
2017-05-19T17:04:05.780Z,2.62
2017-05-19T17:06:31.663Z,2.18
2017-05-19T17:08:57.511Z,2.30
2017-05-19T17:11:23.586Z,2.22
2017-05-19T17:13:49.393Z,2.54
2017-05-19T17:16:15.758Z,2.74
2017-05-19T17:18:41.598Z,2.48
2017-05-19T17:21:07.427Z,2.70
2017-05-19T17:23:33.294Z,2.60
2017-05-19T17:25:59.146Z,2.86
2017-05-19T17:28:25.096Z,3.12
2017-05-19T17:30:50.962Z,3.08
2017-05-19T17:33:16.832Z,3.16
2017-05-19T17:35:42.738Z,3.02
2017-05-19T17:38:08.581Z,3.60
2017-05-19T17:40:34.518Z,3.20
2017-05-19T17:43:00.398Z,3.68
2017-05-19T17:45:26.243Z,3.06
2017-05-19T17:47:52.095Z,3.30
2017-05-19T17:50:18.012Z,3.50
2017-05-19T17:52:43.923Z,3.80
2017-05-19T17:55:09.798Z,3.10
2017-05-19T17:57:35.659Z,4.18
2017-05-19T18:00:01.511Z,3.42
2017-05-19T18:02:27.387Z,3.48
2017-05-19T18:04:53.308Z,3.60
2017-05-19T18:07:19.177Z,3.20
2017-05-19T18:09:45.050Z,4.48
2017-05-19T18:12:10.943Z,3.24
2017-05-19T18:14:36.829Z,3.40
2017-05-19T18:17:02.911Z,2.80
2017-05-19T18:19:28.758Z,3.68
2017-05-19T18:21:54.723Z,3.30
2017-05-19T18:24:20.573Z,3.34
2017-05-19T18:26:46.522Z,3.46
2017-05-19T18:29:12.474Z,3.08
2017-05-19T18:31:38.321Z,3.30
2017-05-19T18:34:04.354Z,3.58
2017-05-19T18:36:30.161Z,3.90
2017-05-19T18:38:56.006Z,3.80
2017-05-19T18:41:21.994Z,3.30
2017-05-19T18:43:48.591Z,3.78
2017-05-19T18:46:14.483Z,3.30
2017-05-19T18:48:40.335Z,3.88
2017-05-19T18:51:06.186Z,3.86
2017-05-19T18:53:32.316Z,3.82
2017-05-19T18:55:58.178Z,4.04
2017-05-19T18:58:24.082Z,3.60
2017-05-19T19:00:49.938Z,3.80
2017-05-19T19:03:15.821Z,3.32
2017-05-19T19:05:41.848Z,3.30
2017-05-19T19:08:07.688Z,3.38
2017-05-19T19:10:33.561Z,3.78
2017-05-19T19:12:59.398Z,3.10
2017-05-19T19:15:25.250Z,3.46
2017-05-19T19:17:51.167Z,3.44
2017-05-19T19:20:17.062Z,3.94
2017-05-19T19:22:42.934Z,3.16
2017-05-19T19:25:08.775Z,3.38
2017-05-19T19:27:34.636Z,3.50
2017-05-19T19:30:00.625Z,3.10
2017-05-19T19:32:26.455Z,3.92
2017-05-19T19:34:53.060Z,3.54
2017-05-19T19:37:18.937Z,3.38
2017-05-19T19:39:44.812Z,3.44
2017-05-19T19:42:10.725Z,3.30
2017-05-19T19:44:36.558Z,3.22
2017-05-19T19:47:02.437Z,3.36
2017-05-19T19:49:28.315Z,3.26
2017-05-19T19:51:54.931Z,3.72
2017-05-19T19:54:20.985Z,3.48
2017-05-19T19:56:46.840Z,3.30
2017-05-19T19:59:12.704Z,3.36
2017-05-19T20:01:38.561Z,3.02
2017-05-19T20:04:04.409Z,3.70
2017-05-19T20:06:30.351Z,3.28
2017-05-19T20:08:56.207Z,2.74
2017-05-19T20:11:22.082Z,4.00
2017-05-19T20:13:47.980Z,3.10
2017-05-19T20:16:13.828Z,3.42
2017-05-19T20:18:39.750Z,3.44
2017-05-19T20:21:05.609Z,3.48
2017-05-19T20:23:31.506Z,3.60
2017-05-19T20:25:57.383Z,3.40
2017-05-19T20:28:23.224Z,2.82
2017-05-19T20:30:49.154Z,3.26
2017-05-19T20:33:15.037Z,3.62
2017-05-19T20:35:40.888Z,3.64
2017-05-19T20:38:06.782Z,3.24
2017-05-19T20:40:32.646Z,3.30
2017-05-19T20:42:58.549Z,3.24
2017-05-19T20:45:24.450Z,3.38
2017-05-19T20:47:50.323Z,3.68
2017-05-19T20:50:16.196Z,3.84
2017-05-19T20:52:42.092Z,3.48
2017-05-19T20:55:08.126Z,3.38
2017-05-19T20:57:33.973Z,3.40
2017-05-19T20:59:59.826Z,3.58
2017-05-19T21:02:25.696Z,3.28
2017-05-19T21:04:51.587Z,4.16
2017-05-19T21:07:17.635Z,4.04
2017-05-19T21:09:43.486Z,3.26
2017-05-19T21:12:09.331Z,3.42
2017-05-19T21:14:35.239Z,3.36
2017-05-19T21:17:01.122Z,3.30
2017-05-19T21:19:27.077Z,2.96
2017-05-19T21:21:52.939Z,3.10
2017-05-19T21:24:18.814Z,2.90
2017-05-19T21:26:44.661Z,3.32
2017-05-19T21:29:10.519Z,2.22
2017-05-19T21:31:36.462Z,2.28
2017-05-19T21:34:02.309Z,2.32
2017-05-19T21:36:28.175Z,2.44
2017-05-19T21:38:54.010Z,2.48
2017-05-19T21:41:19.910Z,2.16
2017-05-19T21:43:45.866Z,3.30
2017-05-19T21:46:11.842Z,3.28
2017-05-19T21:48:38.436Z,3.34
2017-05-19T21:51:04.301Z,2.96
2017-05-19T21:53:30.183Z,2.74
2017-05-19T21:55:56.223Z,2.90
2017-05-19T21:58:22.105Z,2.44
2017-05-19T22:00:47.954Z,2.72
2017-05-19T22:03:13.804Z,2.56
2017-05-19T22:05:39.647Z,2.44
2017-05-19T22:08:05.654Z,2.32
2017-05-19T22:10:31.507Z,2.52
2017-05-19T22:12:57.393Z,1.98
2017-05-19T22:15:23.262Z,2.72
2017-05-19T22:17:49.283Z,3.26
2017-05-19T22:20:15.334Z,3.36
2017-05-19T22:22:41.213Z,3.14
2017-05-19T22:25:07.059Z,2.90
2017-05-19T22:27:32.948Z,3.28
2017-05-19T22:29:58.792Z,3.90
2017-05-19T22:32:24.771Z,3.62
2017-05-19T22:34:50.635Z,3.90
2017-05-19T22:37:16.530Z,3.34
2017-05-19T22:39:42.571Z,3.78
2017-05-19T22:42:08.414Z,3.56
2017-05-19T22:44:34.495Z,3.14
2017-05-19T22:47:00.482Z,2.80
2017-05-19T22:49:26.498Z,3.08
2017-05-19T22:51:52.397Z,2.94
2017-05-19T22:54:18.334Z,2.72
2017-05-19T22:56:44.331Z,2.36
2017-05-19T22:59:10.232Z,2.76
2017-05-19T23:01:36.222Z,2.58
2017-05-19T23:04:02.254Z,2.56
2017-05-19T23:06:28.087Z,2.20
2017-05-19T23:08:54.029Z,2.46
2017-05-19T23:11:19.862Z,2.30
2017-05-19T23:13:45.718Z,2.42
2017-05-19T23:16:11.613Z,2.10
2017-05-19T23:18:37.452Z,2.28
2017-05-19T23:21:03.540Z,2.16
2017-05-19T23:23:29.445Z,2.12
2017-05-19T23:25:55.526Z,2.48
2017-05-19T23:28:21.400Z,2.00
2017-05-19T23:30:47.241Z,2.20
2017-05-19T23:33:13.227Z,2.22
2017-05-19T23:35:39.090Z,2.00
2017-05-19T23:38:04.937Z,2.38
2017-05-19T23:40:30.785Z,2.16
2017-05-19T23:42:56.622Z,2.16
2017-05-19T23:45:22.586Z,1.96
2017-05-19T23:47:48.463Z,2.16
2017-05-19T23:50:14.308Z,2.12
2017-05-19T23:52:40.175Z,1.74
2017-05-19T23:55:06.044Z,2.00
2017-05-19T23:57:32.128Z,1.72
2017-05-19T23:59:57.965Z,2.08
